Time;durP1;ratioP1;P1;durP2;ratioP2;P2;SDS_P1;SDS_P2;PMS_P1;PMS_P2;Temp;Humidity;BMP_temperature;BMP_pressure;BME280_temperature;BME280_humidity;BME280_pressure;Samples;Min_cycle;Max_cycle;Signal;HPM_P1;HPM_P2
2022/08/12 00:43:21;;;;;;;3.05;1.77;;;24.00;61.20;;;;;;5076013;28;20049;-58
2022/08/12 00:48:31;;;;;;;3.20;1.95;;;24.00;61.20;;;;;;5074308;28;20450;-58
2022/08/12 00:50:56;;;;;;;3.22;1.73;;;24.00;61.20;;;;;;5074490;28;20544;-58
2022/08/12 00:53:22;;;;;;;3.20;1.98;;;24.00;61.20;;;;;;5074438;28;20071;-58
2022/08/12 00:55:48;;;;;;;4.07;1.88;;;24.00;61.20;;;;;;5075341;28;20543;-58
2022/08/12 00:58:17;;;;;;;4.20;1.75;;;24.00;61.40;;;;;;5073394;28;20053;-58
2022/08/12 01:00:42;;;;;;;3.08;1.85;;;24.00;61.20;;;;;;5073964;28;20046;-58
2022/08/12 01:03:08;;;;;;;4.38;1.88;;;24.00;61.20;;;;;;5074410;28;20044;-58
2022/08/12 01:13:47;;;;;;;5.53;1.77;;;23.90;61.20;;;;;;5073144;28;20044;-58
2022/08/12 01:16:21;;;;;;;2.83;1.67;;;23.90;61.20;;;;;;5074900;28;20044;-58
2022/08/12 01:18:47;;;;;;;2.70;1.75;;;23.90;61.20;;;;;;5075116;28;20045;-58
2022/08/12 01:21:34;;;;;;;3.13;1.70;;;23.90;61.20;;;;;;5073997;28;20056;-58
2022/08/12 01:24:27;;;;;;;3.65;1.80;;;23.90;61.20;;;;;;5074969;28;20041;-58
2022/08/12 01:26:53;;;;;;;2.83;1.67;;;23.90;61.20;;;;;;5073695;28;20131;-58
2022/08/12 01:29:25;;;;;;;2.92;1.63;;;23.90;61.20;;;;;;5075017;28;20048;-58
2022/08/12 01:31:50;;;;;;;3.45;1.80;;;23.90;61.20;;;;;;5074099;28;20519;-58
2022/08/12 01:34:19;;;;;;;4.38;2.05;;;23.90;61.20;;;;;;5073095;28;20044;-59
2022/08/12 01:36:46;;;;;;;4.35;1.90;;;23.90;61.20;;;;;;5073301;28;20037;-58
2022/08/12 01:39:16;;;;;;;3.40;1.60;;;23.90;61.20;;;;;;5074759;28;20471;-58
2022/08/12 01:41:49;;;;;;;3.70;2.30;;;23.90;61.20;;;;;;5073884;28;20475;-58
2022/08/12 01:44:14;;;;;;;2.50;1.60;;;23.90;61.20;;;;;;5073680;28;20044;-58
2022/08/12 01:46:48;;;;;;;4.32;2.00;;;23.80;61.20;;;;;;5073361;28;20036;-58
2022/08/12 01:49:43;;;;;;;3.63;1.95;;;23.90;61.20;;;;;;5072043;28;20402;-58
2022/08/12 01:52:18;;;;;;;5.80;1.77;;;23.90;61.20;;;;;;5074612;28;20068;-58
2022/08/12 01:54:44;;;;;;;3.95;2.17;;;23.80;61.20;;;;;;5072159;28;20106;-58
2022/08/12 01:57:19;;;;;;;3.80;2.08;;;23.80;61.20;;;;;;5072191;28;20037;-57
2022/08/12 02:00:03;;;;;;;3.65;1.80;;;23.90;61.30;;;;;;5072930;28;20059;-58
2022/08/12 02:02:29;;;;;;;3.95;1.98;;;23.80;61.20;;;;;;5051916;28;20760;-58
2022/08/12 02:11:23;;;;;;;3.00;1.70;;;23.80;61.20;;;;;;5052776;28;20115;-58
2022/08/12 02:13:54;;;;;;;3.35;1.80;;;23.80;61.20;;;;;;5052693;28;20041;-58
2022/08/12 02:16:45;;;;;;;5.05;2.00;;;23.80;61.20;;;;;;5051550;28;20041;-58
2022/08/12 02:19:19;;;;;;;4.28;1.73;;;23.80;61.20;;;;;;5052807;28;20044;-58
2022/08/12 02:22:23;;;;;;;4.40;2.20;;;23.80;61.20;;;;;;5053771;28;20045;-58
2022/08/12 02:24:49;;;;;;;3.90;1.90;;;23.80;61.20;;;;;;5041311;28;20060;-59
2022/08/12 02:27:16;;;;;;;3.85;1.77;;;23.80;61.20;;;;;;5052464;28;20041;-59
2022/08/12 02:29:41;;;;;;;3.47;2.00;;;23.80;61.20;;;;;;5052820;28;20095;-59
2022/08/12 02:32:07;;;;;;;4.07;1.88;;;23.80;61.20;;;;;;5052677;28;20107;-58
2022/08/12 02:34:33;;;;;;;4.55;1.95;;;23.80;61.20;;;;;;5052043;28;20084;-59
2022/08/12 02:36:59;;;;;;;3.22;2.33;;;23.70;61.10;;;;;;5051969;28;20037;-59
2022/08/12 02:39:25;;;;;;;3.20;1.83;;;23.70;61.10;;;;;;5052358;28;20469;-58
2022/08/12 02:41:51;;;;;;;4.43;2.00;;;23.70;61.10;;;;;;5051785;28;20085;-58
2022/08/12 02:44:16;;;;;;;4.65;2.17;;;23.70;61.10;;;;;;5051426;28;20072;-59
2022/08/12 02:46:48;;;;;;;4.30;1.80;;;23.70;61.00;;;;;;5053014;28;20139;-59
2022/08/12 02:49:28;;;;;;;4.03;2.10;;;23.70;61.10;;;;;;5072448;28;20040;-59
2022/08/12 02:51:54;;;;;;;3.53;1.90;;;23.70;61.10;;;;;;5072212;28;20044;-58
2022/08/12 02:54:19;;;;;;;3.15;2.13;;;23.70;61.10;;;;;;5055373;28;20399;-58
2022/08/12 02:56:45;;;;;;;3.75;2.17;;;23.70;61.10;;;;;;5055323;28;20439;-58
2022/08/12 02:59:15;;;;;;;3.58;1.88;;;23.70;61.10;;;;;;5072452;28;20052;-58
2022/08/12 03:01:46;;;;;;;3.28;2.10;;;23.70;61.10;;;;;;5072791;28;20040;-58
2022/08/12 03:04:16;;;;;;;3.72;1.85;;;23.70;61.10;;;;;;5071935;28;20110;-58
2022/08/12 03:07:05;;;;;;;4.28;2.30;;;23.70;61.10;;;;;;5072535;28;20093;-58
2022/08/12 03:09:32;;;;;;;3.65;1.90;;;23.70;61.00;;;;;;5067443;28;20056;-59
2022/08/12 03:12:03;;;;;;;3.67;2.03;;;23.70;61.10;;;;;;5071961;28;20044;-59
2022/08/12 03:14:29;;;;;;;3.38;2.05;;;23.70;61.00;;;;;;5072783;28;20441;-59
2022/08/12 03:17:19;;;;;;;4.55;2.58;;;23.70;61.10;;;;;;5054015;28;20136;-59
2022/08/12 03:19:44;;;;;;;4.07;1.90;;;23.70;61.10;;;;;;5070171;28;20132;-59
2022/08/12 03:22:14;;;;;;;4.65;2.22;;;23.70;61.10;;;;;;5072634;28;20422;-58
2022/08/12 03:24:41;;;;;;;3.05;1.83;;;23.70;61.10;;;;;;5072993;28;20036;-59
2022/08/12 03:27:08;;;;;;;3.90;2.00;;;23.70;61.10;;;;;;5071509;28;20040;-59
2022/08/12 03:29:35;;;;;;;3.42;2.05;;;23.70;61.10;;;;;;5072372;28;20407;-58
2022/08/12 03:32:00;;;;;;;4.20;2.30;;;23.60;61.10;;;;;;5070943;28;20053;-58
2022/08/12 03:34:28;;;;;;;2.78;1.90;;;23.60;61.10;;;;;;5054069;28;20055;-58
2022/08/12 03:36:54;;;;;;;;;;;23.60;61.10;;;;;;5071680;28;20044;-58
2022/08/12 03:39:26;;;;;;;3.10;1.80;;;23.60;61.10;;;;;;5071293;28;19917;-59
2022/08/12 03:42:00;;;;;;;4.18;2.17;;;23.60;61.10;;;;;;5054400;28;20044;-58
2022/08/12 04:01:02;;;;;;;3.35;1.90;;;23.60;61.10;;;;;;5066470;28;20044;-58
2022/08/12 04:06:13;;;;;;;4.30;2.35;;;23.60;61.00;;;;;;5069956;28;20045;-58
2022/08/12 04:08:39;;;;;;;3.50;2.05;;;23.60;61.10;;;;;;5070677;28;20055;-59
2022/08/12 04:13:49;;;;;;;2.67;2.00;;;23.60;61.00;;;;;;5074068;28;20048;-58
2022/08/12 04:16:15;;;;;;;4.30;2.40;;;23.60;61.10;;;;;;5075228;28;20051;-58
2022/08/12 04:18:41;;;;;;;3.53;2.35;;;23.60;61.00;;;;;;5058541;28;20056;-58
2022/08/12 04:21:10;;;;;;;3.58;1.98;;;23.60;61.00;;;;;;5076196;28;20044;-58
2022/08/12 04:23:37;;;;;;;2.97;2.10;;;23.60;61.00;;;;;;5074198;28;20080;-58
2022/08/12 04:26:04;;;;;;;3.53;2.03;;;23.50;60.90;;;;;;5074502;28;20377;-58
2022/08/12 04:28:30;;;;;;;4.15;2.17;;;23.50;60.90;;;;;;5076261;28;20063;-58
2022/08/12 04:30:56;;;;;;;3.92;2.13;;;23.50;60.90;;;;;;5074276;28;20060;-58
2022/08/12 04:33:22;;;;;;;3.13;2.22;;;23.50;60.90;;;;;;5076138;28;20048;-58
2022/08/12 04:35:48;;;;;;;4.15;1.95;;;23.50;60.90;;;;;;5075079;28;20044;-59
2022/08/12 04:38:13;;;;;;;2.85;1.75;;;23.50;60.80;;;;;;5075910;28;20210;-59
2022/08/12 04:40:39;;;;;;;4.00;2.10;;;23.50;60.90;;;;;;5074468;28;20139;-59
2022/08/12 04:43:05;;;;;;;3.97;2.10;;;23.50;60.90;;;;;;5056992;28;20075;-59
2022/08/12 04:45:31;;;;;;;4.28;2.08;;;23.50;60.90;;;;;;5075615;28;20076;-58
2022/08/12 04:47:57;;;;;;;4.35;2.10;;;23.50;60.80;;;;;;5075436;28;20083;-59
2022/08/12 04:50:23;;;;;;;2.88;2.03;;;23.50;60.80;;;;;;5074625;28;20383;-58
2022/08/12 04:52:49;;;;;;;5.72;2.40;;;23.50;60.80;;;;;;5073940;28;20048;-59
2022/08/12 04:55:15;;;;;;;3.25;2.15;;;23.50;60.80;;;;;;5074545;28;20111;-58
2022/08/12 04:57:41;;;;;;;2.83;1.90;;;23.50;60.80;;;;;;5056838;28;20428;-59
2022/08/12 05:00:11;;;;;;;3.97;2.38;;;23.50;60.80;;;;;;5075032;28;20063;-59
2022/08/12 05:02:36;;;;;;;3.95;2.00;;;23.50;60.80;;;;;;5091281;28;20366;-58
2022/08/12 05:05:03;;;;;;;4.55;2.17;;;23.50;60.80;;;;;;5074353;28;20083;-59
2022/08/12 05:07:28;;;;;;;3.92;2.15;;;23.50;60.80;;;;;;5075504;28;20090;-59
2022/08/12 05:09:54;;;;;;;4.20;2.10;;;23.50;60.80;;;;;;5075157;28;20056;-59
2022/08/12 05:12:19;;;;;;;3.15;1.88;;;23.50;60.80;;;;;;5074351;28;20082;-59
2022/08/12 05:14:45;;;;;;;4.07;1.90;;;23.50;60.80;;;;;;5073653;28;20174;-58
2022/08/12 05:17:11;;;;;;;4.78;2.10;;;23.50;60.90;;;;;;5074816;28;20075;-58
2022/08/12 05:19:36;;;;;;;3.13;2.00;;;23.50;60.90;;;;;;5074464;28;20515;-58
2022/08/12 05:22:02;;;;;;;3.28;1.70;;;23.50;60.90;;;;;;5074826;28;20509;-58
2022/08/12 05:24:27;;;;;;;2.92;1.90;;;23.50;60.80;;;;;;5074155;28;20559;-58
2022/08/12 05:26:53;;;;;;;3.40;1.95;;;23.50;60.90;;;;;;5073990;28;20036;-59
2022/08/12 05:29:19;;;;;;;3.97;2.17;;;23.50;60.90;;;;;;5075180;28;20044;-59
2022/08/12 05:31:44;;;;;;;3.05;2.20;;;23.50;60.80;;;;;;5074086;28;20055;-59
2022/08/12 05:34:13;;;;;;;2.83;2.05;;;23.50;60.80;;;;;;5074188;28;20044;-58
2022/08/12 05:36:40;;;;;;;3.65;2.00;;;23.50;60.90;;;;;;5074942;28;20048;-59
2022/08/12 05:39:05;;;;;;;2.72;1.80;;;23.50;60.80;;;;;;5074389;28;20040;-59
2022/08/12 05:41:34;;;;;;;5.30;2.05;;;23.50;60.80;;;;;;5073207;28;20052;-58
2022/08/12 05:44:11;;;;;;;3.67;2.10;;;23.50;60.80;;;;;;5074698;28;20091;-59
2022/08/12 05:46:37;;;;;;;2.88;1.75;;;23.50;60.80;;;;;;5073509;28;20460;-58
2022/08/12 05:49:03;;;;;;;2.25;1.80;;;23.50;60.80;;;;;;5074359;28;20091;-58
2022/08/12 05:51:30;;;;;;;2.35;1.80;;;23.50;60.80;;;;;;5074447;28;20076;-57
2022/08/12 05:53:57;;;;;;;3.72;2.13;;;23.50;60.80;;;;;;5073482;28;20500;-59
2022/08/12 05:56:24;;;;;;;3.70;1.90;;;23.50;60.80;;;;;;5074342;28;20491;-58
2022/08/12 05:58:53;;;;;;;3.75;2.17;;;23.50;61.40;;;;;;5074345;28;20111;-58
2022/08/12 06:01:20;;;;;;;4.65;2.85;;;23.50;60.90;;;;;;5072718;28;20040;-58
2022/08/12 06:03:45;;;;;;;5.82;2.63;;;23.50;60.70;;;;;;5073930;28;20055;-58
2022/08/12 06:06:13;;;;;;;6.57;2.83;;;23.50;60.50;;;;;;5074394;28;20040;-59
2022/08/12 06:08:40;;;;;;;6.32;3.00;;;23.40;60.40;;;;;;5072584;28;20059;-59
2022/08/12 06:11:05;;;;;;;6.72;2.47;;;23.40;60.40;;;;;;5073854;28;20496;-59
2022/08/12 06:13:37;;;;;;;5.15;2.90;;;23.40;60.30;;;;;;5074509;28;20087;-58
2022/08/12 06:16:04;;;;;;;5.30;3.13;;;23.40;60.20;;;;;;5071858;28;20447;-59
2022/08/12 06:18:30;;;;;;;8.05;3.13;;;23.40;60.10;;;;;;5074100;28;20048;-59
2022/08/12 06:20:57;;;;;;;6.75;2.90;;;23.40;60.00;;;;;;5073977;28;20105;-57
2022/08/12 06:23:27;;;;;;;4.90;3.28;;;23.30;60.00;;;;;;5073471;28;20064;-57
2022/08/12 06:25:54;;;;;;;4.25;2.95;;;23.30;60.00;;;;;;5073841;28;20063;-57
2022/08/12 06:28:20;;;;;;;7.85;3.20;;;23.30;60.00;;;;;;5073436;28;20071;-56
2022/08/12 06:30:45;;;;;;;8.05;4.00;;;23.30;60.00;;;;;;5073128;28;20361;-57
2022/08/12 06:33:12;;;;;;;8.75;4.30;;;23.30;59.90;;;;;;5074085;28;20044;-57
2022/08/12 06:35:40;;;;;;;6.07;4.40;;;23.20;59.90;;;;;;5072742;28;20113;-56
2022/08/12 06:38:14;;;;;;;6.00;3.90;;;23.20;60.10;;;;;;5073568;28;20044;-56
2022/08/12 06:43:26;;;;;;;7.50;4.60;;;23.10;60.20;;;;;;5072417;28;20048;-56
2022/08/12 06:45:52;;;;;;;10.02;4.60;;;23.00;60.20;;;;;;5073437;28;20055;-58
2022/08/12 06:48:18;;;;;;;9.15;4.43;;;23.00;60.30;;;;;;5073619;28;20154;-58
2022/08/12 06:50:44;;;;;;;8.07;4.32;;;23.00;60.50;;;;;;5072629;28;20124;-59
2022/08/12 06:53:10;;;;;;;7.53;4.63;;;22.90;60.50;;;;;;5072172;28;20618;-59
2022/08/12 06:55:36;;;;;;;7.55;4.00;;;22.90;60.50;;;;;;5073115;28;20124;-59
2022/08/12 06:58:03;;;;;;;10.30;4.22;;;22.90;60.50;;;;;;5072457;28;20032;-59
2022/08/12 07:00:32;;;;;;;8.35;4.20;;;22.90;60.50;;;;;;5073160;28;20519;-59
2022/08/12 07:02:58;;;;;;;7.35;4.40;;;22.90;60.60;;;;;;5072863;28;20052;-59
2022/08/12 07:05:23;;;;;;;8.65;4.35;;;22.90;60.80;;;;;;5072608;28;20048;-59
2022/08/12 07:08:10;;;;;;;9.27;3.90;;;22.90;61.00;;;;;;5072751;28;20040;-59
2022/08/12 07:10:53;;;;;;;8.55;4.82;;;22.90;61.10;;;;;;5072320;28;20059;-58
2022/08/12 07:13:19;;;;;;;7.18;4.25;;;22.90;61.30;;;;;;5073358;28;20051;-59
2022/08/12 07:15:44;;;;;;;7.18;3.97;;;22.90;61.30;;;;;;5072814;28;20044;-59
2022/08/12 07:18:14;;;;;;;8.88;3.90;;;22.90;61.40;;;;;;5072004;28;20051;-59
2022/08/12 07:20:41;;;;;;;7.30;4.07;;;22.90;61.40;;;;;;5072906;28;20041;-59
2022/08/12 07:23:07;;;;;;;7.43;4.03;;;23.00;61.50;;;;;;5072829;28;20036;-59
2022/08/12 07:25:33;;;;;;;8.93;4.25;;;23.00;61.50;;;;;;5072198;28;20052;-59
2022/08/12 07:28:03;;;;;;;6.40;4.45;;;23.00;61.60;;;;;;5072421;28;20502;-59
2022/08/12 07:30:35;;;;;;;7.18;4.22;;;23.00;61.60;;;;;;5070936;28;20102;-59
2022/08/12 07:33:03;;;;;;;11.50;4.05;;;23.00;61.70;;;;;;5070313;28;20040;-59
2022/08/12 07:35:29;;;;;;;10.68;3.90;;;23.00;61.70;;;;;;5072939;28;20087;-59
2022/08/12 07:37:56;;;;;;;7.38;3.70;;;23.00;61.70;;;;;;5071518;28;20087;-59
2022/08/12 07:40:22;;;;;;;9.93;4.15;;;23.00;61.70;;;;;;5071755;28;20052;-59
2022/08/12 07:42:48;;;;;;;8.27;3.63;;;23.00;61.70;;;;;;5072027;28;20496;-57
2022/08/12 07:45:13;;;;;;;9.95;4.10;;;23.00;61.70;;;;;;5071327;28;20040;-57
2022/08/12 07:47:42;;;;;;;6.80;3.50;;;23.00;61.70;;;;;;5070353;28;20123;-59
2022/08/12 07:50:08;;;;;;;7.88;3.97;;;23.10;61.80;;;;;;5072587;28;20080;-60
2022/08/12 07:52:34;;;;;;;8.32;3.78;;;23.10;61.90;;;;;;5072511;28;20041;-59
2022/08/12 07:55:00;;;;;;;7.95;3.28;;;23.10;61.90;;;;;;5071484;28;20092;-57
2022/08/12 07:57:26;;;;;;;8.07;3.35;;;23.10;61.80;;;;;;5071025;28;20041;-57
2022/08/12 07:59:52;;;;;;;6.38;3.45;;;23.20;61.90;;;;;;5071629;28;20508;-58
2022/08/12 08:02:17;;;;;;;6.32;3.40;;;23.20;61.80;;;;;;5072160;28;20482;-58
2022/08/12 08:04:55;;;;;;;6.78;3.38;;;23.20;61.90;;;;;;5072331;28;20507;-58
2022/08/12 08:07:21;;;;;;;6.97;3.55;;;23.20;62.00;;;;;;5071661;28;20040;-58
2022/08/12 08:09:47;;;;;;;5.93;2.95;;;23.20;62.00;;;;;;5071856;28;20119;-58
2022/08/12 08:14:57;;;;;;;5.72;2.90;;;23.30;61.80;;;;;;5071437;28;20127;-58
2022/08/12 08:17:23;;;;;;;5.82;2.95;;;23.30;61.70;;;;;;5072378;28;20094;-58
2022/08/12 08:19:51;;;;;;;6.07;2.72;;;23.40;61.70;;;;;;5070974;28;20379;-57
2022/08/12 08:22:26;;;;;;;7.22;3.25;;;23.40;61.60;;;;;;5071269;28;20480;-58
2022/08/12 08:24:55;;;;;;;6.18;2.80;;;23.40;61.50;;;;;;5071899;28;20420;-58
2022/08/12 08:27:21;;;;;;;4.70;3.10;;;23.40;61.50;;;;;;5071026;28;20496;-58
2022/08/12 08:29:47;;;;;;;6.80;3.28;;;23.50;61.40;;;;;;5071143;28;20091;-58
2022/08/12 08:32:12;;;;;;;5.60;2.67;;;23.50;61.20;;;;;;5071976;28;20061;-58
2022/08/12 08:34:38;;;;;;;7.43;3.25;;;23.50;61.10;;;;;;5072350;28;20051;-58
2022/08/12 08:37:03;;;;;;;5.70;3.38;;;23.60;61.20;;;;;;5071285;28;20044;-58
2022/08/12 08:39:30;;;;;;;3.90;2.72;;;23.60;61.10;;;;;;5072109;28;20052;-58
2022/08/12 08:44:41;;;;;;;7.00;2.92;;;23.60;60.50;;;;;;5072350;28;20052;-57
2022/08/12 08:47:07;;;;;;;6.63;3.65;;;23.60;60.40;;;;;;5071963;28;20121;-58
2022/08/12 08:49:35;;;;;;;6.40;2.88;;;23.70;60.30;;;;;;5071404;28;20098;-58
2022/08/12 08:52:01;;;;;;;4.43;3.05;;;23.70;60.20;;;;;;5071687;28;20477;-62
2022/08/12 08:54:32;;;;;;;5.75;3.10;;;23.70;60.00;;;;;;5072075;28;20045;-62
2022/08/12 08:57:01;;;;;;;7.20;3.08;;;23.70;60.00;;;;;;5070997;28;20033;-62
2022/08/12 08:59:27;;;;;;;7.50;2.80;;;23.80;60.00;;;;;;5072971;28;20049;-62
2022/08/12 09:01:52;;;;;;;6.38;2.88;;;23.80;60.00;;;;;;5074044;28;20048;-62
2022/08/12 09:04:19;;;;;;;4.18;2.90;;;23.80;59.90;;;;;;5074824;28;20116;-62
2022/08/12 09:06:46;;;;;;;6.07;2.75;;;23.80;59.90;;;;;;5074877;28;20155;-62
2022/08/12 09:09:13;;;;;;;4.32;2.72;;;23.90;59.90;;;;;;5075366;28;20483;-62
2022/08/12 09:14:37;;;;;;;4.35;2.65;;;23.90;59.80;;;;;;5063267;28;20049;-62
2022/08/12 09:17:04;;;;;;;5.40;2.60;;;23.90;59.80;;;;;;5073422;28;20124;-62
2022/08/12 09:19:29;;;;;;;3.22;2.20;;;23.90;59.80;;;;;;5074624;28;20111;-62
2022/08/12 09:21:56;;;;;;;4.43;2.47;;;23.90;59.80;;;;;;5075104;28;20119;-62
2022/08/12 09:24:21;;;;;;;6.60;2.80;;;24.00;59.90;;;;;;5074706;28;20036;-63
2022/08/12 09:26:47;;;;;;;4.13;2.30;;;24.00;59.80;;;;;;5075004;28;20062;-62
2022/08/12 09:29:14;;;;;;;5.68;2.80;;;24.00;59.80;;;;;;5075258;28;20043;-62
2022/08/12 09:31:40;;;;;;;5.70;2.55;;;24.00;59.90;;;;;;5074269;28;20046;-62
2022/08/12 09:34:09;;;;;;;4.80;2.75;;;24.00;59.90;;;;;;5074599;28;20458;-62
2022/08/12 09:36:37;;;;;;;5.63;2.58;;;24.00;60.10;;;;;;5074887;28;20432;-62
2022/08/12 09:39:05;;;;;;;5.38;2.92;;;24.00;60.20;;;;;;5072950;28;20122;-62
2022/08/12 09:41:40;;;;;;;5.88;2.90;;;24.00;60.10;;;;;;5075017;28;20041;-62
2022/08/12 09:46:49;;;;;;;4.85;3.05;;;24.10;60.60;;;;;;5074028;28;20040;-62
2022/08/12 09:49:16;;;;;;;4.75;2.53;;;24.10;61.00;;;;;;5073481;28;20045;-62
2022/08/12 09:51:42;;;;;;;5.88;2.90;;;24.10;61.10;;;;;;5073460;28;20127;-62
2022/08/12 09:54:11;;;;;;;4.40;2.88;;;24.10;61.30;;;;;;5073894;28;20488;-62
2022/08/12 09:56:40;;;;;;;3.53;2.42;;;24.10;61.40;;;;;;5074712;28;20036;-61
2022/08/12 09:59:08;;;;;;;6.07;2.50;;;24.10;61.30;;;;;;5074426;28;20085;-62
2022/08/12 10:01:37;;;;;;;6.05;2.58;;;24.10;61.20;;;;;;5072529;28;20048;-62
2022/08/12 10:04:09;;;;;;;5.25;2.53;;;24.20;61.30;;;;;;5074235;28;20057;-62
2022/08/12 10:06:38;;;;;;;5.18;2.80;;;24.20;61.30;;;;;;5073701;28;20056;-62
2022/08/12 10:09:05;;;;;;;4.15;2.85;;;24.20;61.30;;;;;;5074265;28;20045;-62
2022/08/12 10:14:15;;;;;;;4.20;2.60;;;24.20;61.30;;;;;;5073789;28;20048;-62
2022/08/12 10:16:43;;;;;;;4.50;2.70;;;24.20;61.30;;;;;;5074531;28;20373;-62
2022/08/12 10:19:08;;;;;;;5.70;2.75;;;24.20;61.30;;;;;;5073103;28;20043;-63
2022/08/12 10:21:40;;;;;;;3.17;2.30;;;24.20;61.30;;;;;;5073620;28;20040;-62
2022/08/12 10:24:10;;;;;;;7.43;2.67;;;24.20;61.30;;;;;;5073742;28;20530;-62
2022/08/12 10:32:06;;;;;;;5.70;2.38;;;24.20;61.00;;;;;;5063653;28;20040;-61
2022/08/12 10:34:32;;;;;;;4.60;2.63;;;24.30;61.10;;;;;;5057348;28;20044;-62
2022/08/12 10:36:59;;;;;;;4.68;2.30;;;24.30;60.90;;;;;;5053317;28;20041;-62
2022/08/12 10:39:32;;;;;;;4.20;2.65;;;24.30;61.00;;;;;;5058473;28;20044;-62
2022/08/12 10:45:04;;;;;;;4.68;2.58;;;24.30;61.00;;;;;;5072832;28;20067;-62
2022/08/12 10:47:31;;;;;;;5.07;2.55;;;24.30;60.90;;;;;;5073617;28;20105;-61
2022/08/12 10:49:58;;;;;;;4.38;2.50;;;24.30;60.90;;;;;;5072391;28;20430;-62
2022/08/12 10:52:24;;;;;;;4.75;2.55;;;24.30;60.90;;;;;;5073538;28;20075;-62
2022/08/12 10:54:50;;;;;;;3.58;2.15;;;24.30;60.80;;;;;;5073119;28;20068;-62
2022/08/12 10:57:16;;;;;;;5.00;2.55;;;24.30;60.70;;;;;;5072434;28;20131;-62
2022/08/12 10:59:41;;;;;;;3.85;2.25;;;24.30;60.70;;;;;;5073319;28;20040;-62
2022/08/12 11:02:09;;;;;;;3.80;2.50;;;24.30;60.80;;;;;;5073100;28;20043;-63
2022/08/12 11:04:37;;;;;;;4.68;2.47;;;24.30;60.80;;;;;;5072807;28;20043;-62
2022/08/12 11:07:02;;;;;;;6.70;2.50;;;24.40;60.80;;;;;;5073129;28;20158;-63
2022/08/12 11:09:30;;;;;;;3.20;2.33;;;24.30;60.80;;;;;;5073063;28;20123;-63
2022/08/12 11:11:56;;;;;;;5.72;2.63;;;24.40;60.70;;;;;;5072023;28;20403;-63
2022/08/12 11:14:30;;;;;;;4.72;2.50;;;24.30;60.60;;;;;;5073171;28;20496;-63
2022/08/12 11:16:59;;;;;;;3.38;2.42;;;24.30;60.60;;;;;;5070705;28;20048;-63
2022/08/12 11:19:25;;;;;;;3.88;1.90;;;24.40;60.80;;;;;;5073273;28;20037;-63
2022/08/12 11:21:51;;;;;;;4.72;2.42;;;24.40;60.70;;;;;;5072579;28;20052;-62
2022/08/12 11:24:17;;;;;;;4.60;2.20;;;24.40;60.70;;;;;;5072301;28;20039;-62
2022/08/12 11:26:42;;;;;;;3.60;2.15;;;24.40;60.60;;;;;;5072661;28;20087;-62
2022/08/12 11:29:08;;;;;;;3.53;2.38;;;24.40;60.80;;;;;;5072665;28;20044;-63
2022/08/12 11:31:33;;;;;;;3.83;2.40;;;24.40;60.70;;;;;;5072084;28;20063;-62
2022/08/12 11:33:59;;;;;;;4.07;2.33;;;24.40;60.70;;;;;;5072479;28;20480;-63
2022/08/12 11:36:24;;;;;;;4.28;2.22;;;24.40;60.70;;;;;;5073091;28;20044;-63
2022/08/12 11:38:50;;;;;;;4.88;2.63;;;24.40;60.70;;;;;;5071703;28;20040;-63
2022/08/12 11:41:16;;;;;;;4.22;2.40;;;24.50;60.70;;;;;;5072518;28;20098;-63
2022/08/12 11:43:42;;;;;;;6.03;2.80;;;24.50;60.80;;;;;;5072766;28;20054;-62
2022/08/12 11:46:07;;;;;;;4.22;2.38;;;24.50;60.80;;;;;;5071874;28;20036;-61
2022/08/12 11:48:38;;;;;;;4.05;2.50;;;24.50;60.70;;;;;;5071639;28;20044;-62
2022/08/12 11:51:07;;;;;;;4.70;2.40;;;24.50;60.80;;;;;;5070375;28;20040;-62
2022/08/12 11:53:33;;;;;;;9.45;3.35;;;24.50;60.80;;;;;;5068673;28;20105;-61
2022/08/12 11:55:58;;;;;;;6.70;2.92;;;24.50;60.70;;;;;;5071582;28;20472;-61
2022/08/12 11:58:24;;;;;;;3.53;2.20;;;24.50;60.70;;;;;;5071799;28;20037;-61
2022/08/12 12:00:49;;;;;;;3.60;2.13;;;24.50;60.60;;;;;;5070928;28;20033;-62
2022/08/12 12:03:15;;;;;;;5.18;2.78;;;24.60;61.30;;;;;;5071884;28;20093;-62
2022/08/12 12:05:40;;;;;;;3.10;2.20;;;24.60;60.70;;;;;;5072008;28;20075;-62
2022/08/12 12:08:06;;;;;;;3.20;2.15;;;24.60;60.80;;;;;;5071103;28;20055;-61
2022/08/12 12:10:31;;;;;;;4.57;2.47;;;24.60;60.80;;;;;;5071970;28;20037;-62
2022/08/12 12:12:57;;;;;;;4.13;2.50;;;24.60;60.90;;;;;;5071289;28;20077;-62
2022/08/12 12:15:23;;;;;;;3.60;2.13;;;24.60;61.00;;;;;;5071549;28;20047;-62
2022/08/12 12:17:50;;;;;;;4.07;2.50;;;24.60;61.00;;;;;;5071777;28;20037;-62
2022/08/12 12:20:16;;;;;;;3.80;2.60;;;24.60;61.00;;;;;;5071299;28;20045;-62
2022/08/12 12:22:41;;;;;;;3.83;2.45;;;24.70;61.10;;;;;;5065143;28;20473;-63
2022/08/12 12:25:08;;;;;;;4.05;2.40;;;24.70;61.10;;;;;;5066554;28;20127;-62
2022/08/12 12:27:50;;;;;;;2.90;2.10;;;24.70;61.10;;;;;;5069622;28;20037;-61
2022/08/12 12:30:16;;;;;;;2.80;2.22;;;24.70;61.10;;;;;;5067851;28;20040;-61
2022/08/12 12:32:42;;;;;;;4.03;2.58;;;24.70;61.10;;;;;;5070679;28;20113;-62
2022/08/12 12:35:08;;;;;;;3.20;2.10;;;24.70;61.00;;;;;;5072819;28;20128;-62
2022/08/12 12:37:33;;;;;;;4.13;2.60;;;24.70;61.10;;;;;;5075612;28;20037;-62
2022/08/12 12:39:59;;;;;;;4.65;2.17;;;24.80;61.10;;;;;;5075095;28;20040;-61
2022/08/12 12:42:24;;;;;;;4.10;2.35;;;24.70;61.10;;;;;;5075189;28;20041;-61
2022/08/12 12:44:50;;;;;;;3.35;2.40;;;24.70;61.10;;;;;;5075393;28;20127;-61
2022/08/12 12:47:15;;;;;;;5.60;2.40;;;24.80;61.10;;;;;;5060388;28;20033;-61
2022/08/12 12:49:41;;;;;;;3.33;2.30;;;24.70;61.10;;;;;;5060875;28;21328;-61
2022/08/12 12:52:07;;;;;;;3.75;2.55;;;24.80;61.10;;;;;;5068374;28;20111;-61
2022/08/12 12:54:32;;;;;;;3.65;2.05;;;24.80;61.20;;;;;;5071232;28;20045;-61
2022/08/12 12:56:58;;;;;;;6.18;2.45;;;24.80;61.10;;;;;;5073595;28;20082;-62
2022/08/12 12:59:27;;;;;;;3.38;2.35;;;24.80;61.10;;;;;;5068517;28;20033;-61
2022/08/12 13:01:53;;;;;;;3.67;2.30;;;24.80;61.70;;;;;;5070216;28;20627;-62
2022/08/12 13:04:18;;;;;;;4.40;2.63;;;24.80;61.10;;;;;;5073832;28;20476;-62
2022/08/12 13:06:49;;;;;;;2.78;1.98;;;24.80;61.10;;;;;;5065749;28;20043;-62
2022/08/12 13:09:15;;;;;;;3.40;2.40;;;24.90;61.10;;;;;;5063111;28;20523;-61
2022/08/12 13:11:40;;;;;;;4.57;2.72;;;24.90;61.10;;;;;;5074883;28;20606;-62
2022/08/12 13:14:07;;;;;;;3.28;2.28;;;24.90;61.10;;;;;;5074942;28;20032;-61
2022/08/12 13:16:33;;;;;;;3.08;2.40;;;24.90;61.10;;;;;;5074617;28;20079;-61
2022/08/12 13:18:58;;;;;;;3.75;2.00;;;24.90;61.10;;;;;;5075187;28;20076;-61
2022/08/12 13:21:25;;;;;;;4.63;2.17;;;24.90;61.20;;;;;;5073983;28;20047;-61
2022/08/12 13:23:54;;;;;;;3.58;2.50;;;24.90;61.30;;;;;;5072878;28;20400;-63
2022/08/12 13:26:20;;;;;;;4.50;2.40;;;24.90;61.20;;;;;;5075169;28;20139;-62
2022/08/12 13:28:48;;;;;;;6.75;2.50;;;25.00;61.20;;;;;;5074851;28;20543;-62
2022/08/12 13:31:16;;;;;;;4.28;2.53;;;24.90;61.10;;;;;;5073000;28;20052;-62
2022/08/12 13:33:41;;;;;;;3.83;2.30;;;24.90;61.20;;;;;;5075003;28;20057;-62
2022/08/12 13:36:09;;;;;;;4.50;2.25;;;24.90;61.20;;;;;;5074986;28;20047;-62
2022/08/12 13:38:49;;;;;;;6.30;2.80;;;24.90;61.20;;;;;;5070280;28;20032;-62
2022/08/12 13:41:31;;;;;;;2.83;2.00;;;24.80;61.10;;;;;;5062139;28;20443;-61
2022/08/12 13:44:00;;;;;;;3.97;2.70;;;24.80;61.20;;;;;;5054399;28;20051;-62
2022/08/12 13:46:26;;;;;;;6.07;2.42;;;24.90;61.30;;;;;;5060140;28;20077;-62
2022/08/12 13:48:53;;;;;;;5.07;2.25;;;24.80;61.30;;;;;;5062925;28;20621;-62
2022/08/12 13:51:19;;;;;;;5.18;2.58;;;24.80;61.30;;;;;;5074103;28;20423;-62
2022/08/12 13:53:44;;;;;;;4.20;2.33;;;24.80;61.40;;;;;;5073440;28;20064;-61
2022/08/12 13:56:10;;;;;;;4.53;2.40;;;24.80;61.50;;;;;;5074554;28;20396;-62
2022/08/12 13:58:36;;;;;;;4.50;2.40;;;24.90;61.50;;;;;;5073892;28;20036;-62
2022/08/12 14:01:04;;;;;;;4.97;2.60;;;24.80;61.50;;;;;;5074198;28;20424;-62
2022/08/12 14:03:29;;;;;;;4.32;2.40;;;24.80;61.50;;;;;;5074863;28;20119;-62
2022/08/12 14:05:58;;;;;;;3.33;2.47;;;24.80;61.50;;;;;;5073435;28;20151;-62
2022/08/12 14:08:23;;;;;;;3.95;2.25;;;24.80;61.60;;;;;;5074710;28;20067;-61
2022/08/12 14:10:52;;;;;;;2.58;2.25;;;24.80;61.60;;;;;;5073964;28;20435;-63
2022/08/12 14:13:19;;;;;;;5.75;2.58;;;24.80;61.70;;;;;;5067587;28;20072;-63
2022/08/12 14:15:49;;;;;;;6.72;2.38;;;24.80;61.70;;;;;;5053412;28;20076;-63
2022/08/12 14:18:15;;;;;;;5.57;2.60;;;24.80;61.70;;;;;;5058003;28;20140;-61
2022/08/12 14:20:48;;;;;;;5.78;2.85;;;24.90;61.70;;;;;;5058172;28;20555;-61
2022/08/12 14:23:15;;;;;;;3.33;2.47;;;24.90;61.80;;;;;;5057767;28;20040;-61
2022/08/12 14:25:42;;;;;;;5.35;2.50;;;24.90;61.70;;;;;;5072892;28;20044;-61
2022/08/12 14:28:14;;;;;;;5.33;3.03;;;24.80;61.70;;;;;;5072395;28;20496;-61
2022/08/12 14:30:45;;;;;;;5.75;3.10;;;24.80;61.70;;;;;;5072999;28;20040;-61
2022/08/12 14:33:15;;;;;;;4.97;3.10;;;24.80;61.60;;;;;;5073238;28;20051;-61
2022/08/12 14:35:43;;;;;;;5.40;3.20;;;24.80;61.60;;;;;;5072527;28;20049;-62
2022/08/12 14:38:13;;;;;;;3.85;3.00;;;24.90;61.80;;;;;;5073322;28;20044;-61